OVG weather

Overberg Airport
Overberg, Western Cape, South Africa

Public forecast

Using degrees Celsius for public forecast. Weather courtesy of forecast.io.

METAR (pilot weather report)

Retrieved 2019/01/17 08:00 UTC (54 minutes ago):

FAOB 170800Z 08005KT 9999 FEW025 26/17 Q1009

TAF (pilot weather forecast)

Forecast is more than 6 hours old.

Closest forecast is Cape Town International Airport, 89.2 nm (165.1 km) WNW. Retrieved 2019/01/17 00:00 UTC (9 hours ago):

TAF FACT 162200Z 1700/1806 VRB03KT CAVOK TX28/1712Z TN16/1704Z FM170400 36005KT 9999 FEW010 PROB30 TEMPO 1704/1706 BKN010 FM170800 30010KT CAVOK BECMG 1715/1717 24010KT FM171800 22010KT 9999 SCT015 BKN030 PROB40 TEMPO 1722/1806 4500 -RA BKN010